This is the latest recevied weather packets stored in our database for station/object WP3XM. If no packets are shown the sender has not sent any weather packets the latest 10 day(s).
| Time | Temp. | Humidity | Pressure | Rain* | Wind** | Luminosity | Snow |
|---|---|---|---|---|---|---|---|
| 1777821983 | 29.44° C | 66% | 1019.4 hPa | 0 mm | - | 953 W/m² | - |
| 1777821681 | 28.89° C | 71% | 1019.3 hPa | 0 mm | - | 432 W/m² | - |
| 1777821378 | 28.89° C | 69% | 1019.4 hPa | 0 mm | - | 1340 W/m² | - |
| 1777821075 | 29.44° C | 67% | 1019.2 hPa | 0 mm | - | 305 W/m² | - |
| 1777820772 | 29.44° C | 68% | 1019.6 hPa | 0 mm | - | 587 W/m² | - |
| 1777820468 | 28.89° C | 69% | 1019.6 hPa | 0 mm | - | 1064 W/m² | - |
| 1777820165 | 28.89° C | 72% | 1019.4 hPa | 0 mm | - | 284 W/m² | - |
| 1777819863 | 28.89° C | 70% | 1019.6 hPa | 0 mm | - | 1040 W/m² | - |
| 1777819560 | 28.89° C | 71% | 1019.6 hPa | 0 mm | - | 302 W/m² | - |
| 1777819257 | 28.89° C | 69% | 1019.6 hPa | 0 mm | - | 964 W/m² | - |
| 1777818953 | 29.44° C | 69% | 1019.7 hPa | 0 mm | - | 927 W/m² | - |
| 1777818650 | 29.44° C | 71% | 1019.6 hPa | 0 mm | - | 914 W/m² | - |
| 1777818342 | 28.89° C | 70% | 1019.6 hPa | 0 mm | - | 1043 W/m² | - |
| 1777818038 | 29.44° C | 69% | 1019.4 hPa | 0 mm | - | 926 W/m² | - |
| 1777817735 | 28.89° C | 69% | 1019.5 hPa | 0 mm | - | 902 W/m² | - |
| 1777817432 | 28.89° C | 68% | 1019.6 hPa | 0 mm | - | 840 W/m² | - |
| 1777817128 | 28.89° C | 70% | 1019.6 hPa | 0 mm | - | 859 W/m² | - |
| 1777816826 | 28.89° C | 72% | 1019.7 hPa | 0 mm | - | 825 W/m² | - |
| 1777816523 | 28.89° C | 72% | 1019.7 hPa | 0 mm | - | 821 W/m² | - |
| 1777816220 | 28.89° C | 72% | 1019.6 hPa | 0 mm | - | 809 W/m² | - |
| 1777815918 | 28.89° C | 72% | 1019.7 hPa | 0 mm | - | 846 W/m² | - |
| 1777815615 | 28.33° C | 74% | 1019.6 hPa | 0 mm | - | 831 W/m² | - |
| 1777815312 | 28.33° C | 74% | 1019.5 hPa | 0 mm | - | 235 W/m² | - |
| 1777815009 | 28.33° C | 75% | 1019.6 hPa | 0 mm | - | 435 W/m² | - |
| 1777814705 | 28.33° C | 75% | 1019.5 hPa | 0 mm | - | 751 W/m² | - |
* Rain latest hour (hover to see other rain measurements)
** Current wind speed in m/s (hover to see current wind gust speed)